Time;durP1;ratioP1;P1;durP2;ratioP2;P2;SDS_P1;SDS_P2;PMS_P1;PMS_P2;Temp;Humidity;BMP_temperature;BMP_pressure;BME280_temperature;BME280_humidity;BME280_pressure;Samples;Min_cycle;Max_cycle;Signal;HPM_P1;HPM_P2
2023/05/14 00:02:20;;;;;;;76.20;10.07;;;;;;;10.00;67.03;100130.97;10422375;28;20732;-56
2023/05/14 00:07:22;;;;;;;37.13;7.10;;;;;;;10.07;66.97;100121.03;10442585;28;20037;-58
2023/05/14 00:12:25;;;;;;;56.97;8.23;;;;;;;10.06;66.92;100121.94;10424993;28;20041;-57
2023/05/14 00:17:27;;;;;;;1252.53;42.53;;;;;;;9.96;66.90;100126.00;10445477;28;20063;-57
2023/05/14 00:22:28;;;;;;;411.67;20.30;;;;;;;9.92;67.13;100120.09;10402907;28;20292;-56
2023/05/14 00:27:30;;;;;;;248.07;13.57;;;;;;;9.90;67.27;100115.88;10440743;28;20045;-59
2023/05/14 00:32:32;;;;;;;302.45;14.32;;;;;;;9.86;67.13;100119.56;10420061;28;20132;-56
2023/05/14 00:37:35;;;;;;;510.10;19.83;;;;;;;9.91;67.45;100109.75;10418084;28;20115;-58
2023/05/14 00:42:37;;;;;;;418.17;14.90;;;;;;;9.78;67.78;100106.94;10404097;28;20045;-56
2023/05/14 00:47:39;;;;;;;200.88;10.50;;;;;;;9.71;67.66;100110.78;10406831;28;20054;-57
2023/05/14 00:52:41;;;;;;;74.53;8.43;;;;;;;9.74;67.92;100107.19;10448637;28;20045;-56
2023/05/14 00:57:44;;;;;;;170.30;8.80;;;;;;;9.75;67.66;100103.66;10436640;28;20065;-57
2023/05/14 01:02:46;;;;;;;305.48;18.38;;;;;;;9.65;67.50;100093.66;10459965;28;20505;-57
2023/05/14 01:08:04;;;;;;;193.70;10.07;;;;;;;9.52;67.92;100103.06;10431426;28;20136;-57
2023/05/14 01:13:26;;;;;;;604.45;20.83;;;;;;;9.64;67.61;100099.81;10411481;28;20132;-57
2023/05/14 01:18:30;;;;;;;175.50;9.60;;;;;;;9.71;67.52;100089.09;10418370;28;20492;-58
2023/05/14 01:23:32;;;;;;;642.63;21.05;;;;;;;9.67;67.43;100103.22;10448615;28;20447;-59
2023/05/14 01:28:36;;;;;;;731.25;26.55;;;;;;;9.67;67.36;100098.00;10419296;28;20052;-57
2023/05/14 01:33:41;;;;;;;216.90;10.82;;;;;;;9.72;67.68;100091.59;10427452;28;20528;-56
2023/05/14 01:38:46;;;;;;;247.75;11.63;;;;;;;9.94;67.15;100104.34;10404299;28;20045;-58
2023/05/14 01:43:48;;;;;;;303.48;13.05;;;;;;;9.89;66.90;100101.16;10429136;28;20048;-58
2023/05/14 01:48:50;;;;;;;472.55;21.70;;;;;;;9.77;66.76;100097.41;10426003;28;20142;-57
2023/05/14 01:53:52;;;;;;;421.50;14.85;;;;;;;9.60;67.15;100087.00;10419589;28;20326;-58
2023/05/14 01:58:56;;;;;;;38.65;6.53;;;;;;;9.73;67.44;100087.22;10406159;28;20049;-57
2023/05/14 02:03:58;;;;;;;216.88;11.82;;;;;;;9.88;67.25;100089.84;10413963;28;20065;-57
2023/05/14 02:09:01;;;;;;;156.60;9.38;;;;;;;9.97;66.78;100086.72;10413416;28;20050;-58
2023/05/14 02:14:03;;;;;;;189.32;8.98;;;;;;;9.92;66.99;100080.91;10413341;28;20065;-57
2023/05/14 02:19:05;;;;;;;266.15;10.52;;;;;;;9.83;67.24;100078.78;10420176;28;20049;-58
2023/05/14 02:24:07;;;;;;;555.78;24.05;;;;;;;9.91;67.52;100083.63;10425159;28;20055;-58
2023/05/14 02:29:09;;;;;;;710.42;37.35;;;;;;;9.62;67.20;100082.53;10417283;28;20046;-57
2023/05/14 02:34:11;;;;;;;230.57;14.73;;;;;;;9.53;67.69;100075.19;10445772;28;20132;-56
2023/05/14 02:39:12;;;;;;;413.15;26.02;;;;;;;9.55;67.92;100073.34;10445080;28;20073;-55
2023/05/14 02:44:14;;;;;;;225.40;14.60;;;;;;;9.63;67.78;100072.00;10415924;28;20099;-57
2023/05/14 02:49:16;;;;;;;204.95;14.45;;;;;;;9.72;67.50;100064.63;10466695;28;20132;-57
2023/05/14 02:54:18;;;;;;;197.88;12.93;;;;;;;9.68;67.65;100065.72;10457202;28;20511;-50
2023/05/14 02:59:20;;;;;;;297.23;20.92;;;;;;;9.67;67.62;100061.44;10416771;28;20081;-57
2023/05/14 03:04:22;;;;;;;286.27;23.25;;;;;;;9.78;67.49;100061.69;10434459;28;20049;-57
2023/05/14 03:09:24;;;;;;;284.25;20.50;;;;;;;9.75;67.45;100065.31;10432693;28;20160;-58
2023/05/14 03:14:26;;;;;;;138.68;10.88;;;;;;;9.86;67.70;100057.75;10423051;28;20137;-57
2023/05/14 03:19:28;;;;;;;252.73;16.10;;;;;;;9.89;67.21;100064.56;10421633;28;20086;-56
2023/05/14 03:24:30;;;;;;;138.38;10.77;;;;;;;9.83;67.56;100067.53;10444291;28;20045;-56
2023/05/14 03:29:32;;;;;;;189.43;11.30;;;;;;;9.78;67.67;100065.16;10428103;28;20072;-57
2023/05/14 03:34:34;;;;;;;188.57;13.25;;;;;;;9.61;67.67;100060.81;10445329;28;20037;-57
2023/05/14 03:39:36;;;;;;;260.63;13.88;;;;;;;9.67;67.65;100058.84;10410609;28;20129;-58
2023/05/14 03:44:38;;;;;;;358.77;21.60;;;;;;;9.69;67.66;100055.19;10434708;28;20041;-58
2023/05/14 03:49:40;;;;;;;291.50;16.02;;;;;;;9.65;67.77;100054.47;10410523;28;20059;-55
2023/05/14 03:54:44;;;;;;;271.35;13.82;;;;;;;9.63;67.83;100053.72;10404839;28;20588;-56
2023/05/14 03:59:46;;;;;;;500.70;22.20;;;;;;;9.66;67.93;100055.38;10436970;28;20539;-57
2023/05/14 04:04:48;;;;;;;260.02;12.95;;;;;;;9.75;67.29;100051.44;10445719;28;20569;-57
2023/05/14 04:09:53;;;;;;;196.70;10.48;;;;;;;9.66;67.55;100060.59;10415010;28;20051;-58
2023/05/14 04:14:57;;;;;;;194.13;10.38;;;;;;;9.63;67.54;100064.16;10437815;28;20049;-57
2023/05/14 04:19:59;;;;;;;259.27;11.68;;;;;;;9.52;67.26;100066.50;10411528;28;20034;-56
2023/05/14 04:25:01;;;;;;;258.60;11.35;;;;;;;9.54;67.66;100066.44;10400887;28;20462;-57
2023/05/14 04:30:03;;;;;;;280.27;13.77;;;;;;;9.68;67.04;100068.34;10413106;28;20055;-56
2023/05/14 04:35:06;;;;;;;268.23;13.30;;;;;;;9.72;67.01;100062.03;10416880;28;20049;-58
2023/05/14 04:40:10;;;;;;;231.48;11.23;;;;;;;9.65;66.96;100067.53;10424123;28;20505;-57
2023/05/14 04:45:12;;;;;;;138.10;9.63;;;;;;;9.61;67.28;100070.41;10419182;28;20052;-58
2023/05/14 04:50:14;;;;;;;62.33;8.32;;;;;;;9.68;66.98;100076.16;10441478;28;20509;-58
2023/05/14 04:55:16;;;;;;;190.60;11.15;;;;;;;9.63;67.19;100074.63;10422182;28;20121;-57
2023/05/14 05:00:20;;;;;;;141.10;10.27;;;;;;;9.67;66.90;100077.94;10434488;28;20076;-58
2023/05/14 05:05:23;;;;;;;464.42;24.02;;;;;;;9.75;66.55;100078.34;10423891;28;20048;-57
2023/05/14 05:10:25;;;;;;;156.13;10.98;;;;;;;9.79;66.69;100079.06;10437192;28;20481;-56
2023/05/14 05:15:27;;;;;;;373.30;17.20;;;;;;;9.98;66.14;100077.97;10422275;28;20041;-57
2023/05/14 05:20:29;;;;;;;216.52;13.30;;;;;;;9.93;66.46;100079.97;10439589;28;20045;-54
2023/05/14 05:25:30;;;;;;;191.48;11.77;;;;;;;10.02;66.19;100081.25;10411559;28;20037;-57
2023/05/14 05:30:32;;;;;;;305.85;15.73;;;;;;;10.07;65.87;100077.47;10428060;28;20051;-57
2023/05/14 05:35:34;;;;;;;205.55;14.35;;;;;;;10.07;65.91;100080.09;10439651;28;20037;-56
2023/05/14 05:40:36;;;;;;;364.02;19.73;;;;;;;10.07;65.70;100079.22;10449802;28;20108;-58
2023/05/14 05:45:38;;;;;;;81.38;11.05;;;;;;;10.28;65.61;100089.31;10446284;28;20107;-59
2023/05/14 05:50:40;;;;;;;185.27;15.25;;;;;;;10.55;64.96;100089.53;10441941;28;20090;-58
2023/05/14 05:55:41;;;;;;;188.40;19.20;;;;;;;10.64;64.69;100094.25;10420197;28;20052;-59
2023/05/14 06:00:44;;;;;;;101.25;12.95;;;;;;;10.68;64.87;100095.78;10408693;28;20103;-59
2023/05/14 06:05:46;;;;;;;160.30;15.25;;;;;;;10.70;64.30;100087.81;10402509;28;20455;-59
2023/05/14 06:10:48;;;;;;;255.65;17.73;;;;;;;10.70;64.57;100080.81;10409893;28;20049;-59
2023/05/14 06:15:50;;;;;;;82.70;11.52;;;;;;;10.65;64.63;100082.84;10416163;28;20099;-58
2023/05/14 06:20:51;;;;;;;90.78;13.18;;;;;;;10.74;64.71;100082.34;10444281;28;20052;-57
2023/05/14 06:25:53;;;;;;;61.97;13.38;;;;;;;11.12;64.33;100078.34;10414519;28;20095;-58
2023/05/14 06:30:55;;;;;;;37.22;13.85;;;;;;;11.22;63.48;100079.47;10405430;28;20057;-58
2023/05/14 06:35:58;;;;;;;29.77;11.95;;;;;;;11.36;63.61;100083.03;10412674;28;20577;-58
2023/05/14 06:41:00;;;;;;;21.20;11.32;;;;;;;11.74;62.84;100082.38;10444731;28;20152;-58
2023/05/14 06:46:02;;;;;;;13.88;11.75;;;;;;;11.91;62.50;100083.94;10418304;28;20187;-58
2023/05/14 06:51:04;;;;;;;15.73;10.93;;;;;;;12.13;62.04;100081.63;10410126;28;20489;-58
2023/05/14 06:56:06;;;;;;;19.00;12.50;;;;;;;12.55;61.69;100073.66;10427875;28;20132;-58
2023/05/14 07:01:08;;;;;;;14.48;11.13;;;;;;;12.50;61.12;100075.72;10427857;28;20271;-57
2023/05/14 07:06:10;;;;;;;14.05;10.82;;;;;;;12.41;60.95;100073.72;10443911;28;20037;-58
2023/05/14 07:11:14;;;;;;;11.75;9.98;;;;;;;12.69;61.63;100078.00;10440377;28;20163;-58
2023/05/14 07:16:16;;;;;;;10.57;9.48;;;;;;;13.83;59.77;100074.47;10426578;28;20045;-59
2023/05/14 07:21:17;;;;;;;11.18;8.80;;;;;;;14.04;57.76;100070.31;10428035;28;20048;-59
2023/05/14 07:26:20;;;;;;;9.73;8.73;;;;;;;14.56;57.17;100068.25;10444706;28;20047;-59
2023/05/14 07:31:22;;;;;;;9.68;8.68;;;;;;;14.63;56.43;100062.50;10448319;28;20077;-59
2023/05/14 07:36:24;;;;;;;10.20;9.07;;;;;;;15.30;55.34;100049.41;10409276;28;20512;-59
2023/05/14 07:41:25;;;;;;;10.30;8.98;;;;;;;15.97;53.45;100041.47;10409501;28;20066;-59
2023/05/14 07:46:27;;;;;;;9.25;8.20;;;;;;;16.40;53.29;100042.31;10415719;28;20099;-57
2023/05/14 07:51:32;;;;;;;9.00;7.53;;;;;;;17.61;51.12;100029.34;10398674;28;20112;-58
2023/05/14 07:56:33;;;;;;;8.85;6.60;;;;;;;17.78;48.82;100028.72;10392923;28;20625;-59
2023/05/14 08:01:35;;;;;;;7.57;6.07;;;;;;;17.47;49.36;100027.06;10405974;28;20590;-59
2023/05/14 08:06:40;;;;;;;7.95;5.80;;;;;;;17.15;49.45;100024.53;10409728;28;20046;-58
2023/05/14 08:11:42;;;;;;;7.00;6.10;;;;;;;17.83;49.30;100022.03;10400690;28;20051;-59
2023/05/14 08:16:44;;;;;;;7.38;5.57;;;;;;;17.79;47.46;100031.22;10395450;28;20572;-59
2023/05/14 08:21:46;;;;;;;11.63;5.45;;;;;;;18.24;46.43;100025.53;10429592;28;20473;-59
2023/05/14 08:26:48;;;;;;;7.65;5.40;;;;;;;18.67;46.86;100022.47;10412396;28;20049;-59
2023/05/14 08:31:50;;;;;;;6.25;5.18;;;;;;;19.25;44.85;100013.44;10421598;28;20064;-58
2023/05/14 08:36:52;;;;;;;13.82;5.13;;;;;;;19.34;44.64;100008.09;10411668;28;20099;-59
2023/05/14 08:41:58;;;;;;;7.03;5.18;;;;;;;20.26;43.93;99992.91;10396991;28;20545;-59
2023/05/14 08:47:00;;;;;;;6.90;4.65;;;;;;;20.84;43.40;99986.16;10401211;28;20418;-59
2023/05/14 08:52:03;;;;;;;6.93;4.45;;;;;;;21.24;42.42;99976.72;10409527;28;20139;-59
2023/05/14 08:57:08;;;;;;;9.35;4.85;;;;;;;21.76;40.86;99960.50;10401148;28;20145;-59
2023/05/14 09:02:13;;;;;;;6.57;4.70;;;;;;;21.52;39.75;99964.91;10385889;28;20563;-59
2023/05/14 09:07:15;;;;;;;6.55;4.07;;;;;;;21.25;40.47;99962.44;10401790;28;20497;-59
2023/05/14 09:12:17;;;;;;;5.75;4.30;;;;;;;21.04;40.35;99960.16;10404371;28;20038;-59
2023/05/14 09:17:19;;;;;;;6.38;4.00;;;;;;;21.59;39.35;99942.00;10401728;28;20055;-59
2023/05/14 09:22:21;;;;;;;5.22;3.67;;;;;;;21.47;38.98;99946.78;10401611;28;20417;-58
2023/05/14 09:27:24;;;;;;;5.00;3.38;;;;;;;21.75;39.73;99936.72;10413895;28;20393;-59
2023/05/14 09:32:26;;;;;;;4.65;3.10;;;;;;;22.14;37.17;99932.50;10409269;28;20424;-58
2023/05/14 09:37:28;;;;;;;4.63;2.88;;;;;;;22.26;37.97;99922.31;10415942;28;20041;-59
2023/05/14 09:42:30;;;;;;;4.35;2.97;;;;;;;22.45;37.50;99916.66;10416548;28;20040;-59
2023/05/14 09:47:32;;;;;;;6.53;3.10;;;;;;;22.16;37.25;99911.84;10399196;28;20045;-59
2023/05/14 09:52:34;;;;;;;4.45;3.00;;;;;;;22.79;36.31;99901.31;10404604;28;20062;-60
2023/05/14 09:57:37;;;;;;;5.88;3.10;;;;;;;22.07;36.65;99896.84;10416504;28;20051;-59
2023/05/14 10:02:41;;;;;;;5.57;2.65;;;;;;;21.77;38.16;99900.94;10406510;28;20061;-59
2023/05/14 10:07:47;;;;;;;6.80;2.80;;;;;;;21.90;36.40;99898.63;10415405;28;20200;-59
2023/05/14 10:13:03;;;;;;;7.68;2.20;;;;;;;20.79;36.30;99908.66;10407079;28;20136;-59
2023/05/14 10:18:17;;;;;;;4.72;1.98;;;;;;;20.11;36.57;99885.56;10402718;28;20045;-60
2023/05/14 10:23:19;;;;;;;3.15;2.03;;;;;;;20.92;36.67;99895.81;10412334;28;20383;-59
2023/05/14 10:28:21;;;;;;;2.65;1.90;;;;;;;22.26;36.27;99879.69;10402992;28;20046;-59
2023/05/14 10:33:23;;;;;;;2.55;1.70;;;;;;;22.43;34.74;99876.84;10415417;28;20514;-59
2023/05/14 10:38:30;;;;;;;3.30;1.90;;;;;;;21.70;34.57;99873.31;10397215;28;20041;-59
2023/05/14 10:43:37;;;;;;;4.20;2.15;;;;;;;20.42;35.94;99884.13;10405183;28;20051;-59
2023/05/14 10:48:41;;;;;;;3.97;1.98;;;;;;;20.03;36.67;99870.38;10393234;28;20117;-59
2023/05/14 10:53:43;;;;;;;3.33;1.95;;;;;;;20.35;36.58;99875.13;10401578;28;20072;-59
2023/05/14 10:58:45;;;;;;;3.97;1.80;;;;;;;19.92;38.00;99869.81;10400052;28;20034;-59
2023/05/14 11:03:52;;;;;;;4.75;1.90;;;;;;;20.35;35.88;99868.97;10410950;28;20135;-59
2023/05/14 11:08:55;;;;;;;3.22;2.10;;;;;;;20.87;36.60;99852.06;10414384;28;20069;-59
2023/05/14 11:13:56;;;;;;;3.90;2.10;;;;;;;20.60;37.38;99850.41;10414673;28;20152;-59
2023/05/14 11:19:05;;;;;;;2.88;1.88;;;;;;;20.43;36.33;99845.13;10396346;28;20040;-59
2023/05/14 11:24:07;;;;;;;3.78;2.10;;;;;;;20.90;36.20;99836.63;10399806;28;20383;-59
2023/05/14 11:29:09;;;;;;;3.08;1.80;;;;;;;21.15;35.43;99820.78;10399261;28;20045;-59
2023/05/14 11:34:11;;;;;;;3.92;2.13;;;;;;;20.99;36.69;99819.72;10397214;28;20049;-59
2023/05/14 11:39:18;;;;;;;3.10;1.80;;;;;;;21.25;36.06;99816.16;10398597;28;20053;-59
2023/05/14 11:44:21;;;;;;;4.80;2.10;;;;;;;21.32;36.37;99818.00;10394951;28;20047;-59
2023/05/14 11:49:28;;;;;;;5.60;2.03;;;;;;;21.21;37.85;99812.97;10383870;28;20076;-59
2023/05/14 11:54:31;;;;;;;2.88;1.88;;;;;;;21.46;36.19;99800.56;10394746;28;20501;-59
2023/05/14 11:59:33;;;;;;;3.80;2.28;;;;;;;21.18;36.43;99807.13;10399338;28;20045;-59
2023/05/14 12:04:35;;;;;;;2.83;1.90;;;;;;;21.27;36.89;99803.50;10401551;28;20045;-59
2023/05/14 12:09:47;;;;;;;4.13;2.00;;;;;;;21.19;35.76;99792.84;10392170;28;20048;-59
2023/05/14 12:14:49;;;;;;;3.22;1.90;;;;;;;21.05;37.18;99789.81;10399343;28;20061;-59
2023/05/14 12:19:52;;;;;;;3.42;1.90;;;;;;;20.91;36.95;99787.78;10397432;28;20065;-59
2023/05/14 12:24:57;;;;;;;5.72;1.70;;;;;;;21.54;37.39;99773.97;10401238;28;20049;-59
2023/05/14 12:30:03;;;;;;;2.90;1.70;;;;;;;21.77;35.72;99765.19;10393370;28;20062;-59
2023/05/14 12:35:22;;;;;;;2.20;1.50;;;;;;;21.84;34.11;99757.34;10401603;28;20085;-59
2023/05/14 12:40:25;;;;;;;2.45;1.48;;;;;;;21.55;33.15;99749.03;10396649;28;20038;-59
2023/05/14 12:45:27;;;;;;;2.58;1.52;;;;;;;21.02;33.77;99746.78;10410272;28;20049;-59
2023/05/14 12:50:30;;;;;;;5.05;1.60;;;;;;;20.72;34.19;99753.47;10378001;28;20037;-59
2023/05/14 12:55:33;;;;;;;2.85;1.40;;;;;;;21.13;32.91;99732.34;10387036;28;20089;-59
2023/05/14 13:00:35;;;;;;;4.72;1.60;;;;;;;21.23;35.31;99727.69;10412764;28;20064;-60
2023/05/14 13:05:37;;;;;;;3.28;1.60;;;;;;;21.33;33.39;99715.94;10407179;28;20042;-59
2023/05/14 13:10:39;;;;;;;2.65;1.42;;;;;;;21.73;33.93;99715.09;10417414;28;20573;-59
2023/05/14 13:15:41;;;;;;;2.33;1.40;;;;;;;22.09;32.50;99700.41;10408514;28;20068;-59
2023/05/14 13:20:45;;;;;;;2.50;1.60;;;;;;;22.33;31.20;99689.66;10397143;28;20048;-59
2023/05/14 13:25:50;;;;;;;3.63;1.67;;;;;;;22.36;31.25;99694.66;10396483;28;20498;-59
2023/05/14 13:31:21;;;;;;;3.50;1.60;;;;;;;22.72;32.04;99686.19;10393531;28;20086;-59
2023/05/14 13:36:23;;;;;;;4.45;1.80;;;;;;;22.47;32.33;99680.97;10389705;28;20057;-59
2023/05/14 13:41:25;;;;;;;3.38;1.90;;;;;;;22.47;32.37;99669.47;10409802;28;20034;-60
2023/05/14 13:46:27;;;;;;;3.28;1.60;;;;;;;22.61;31.43;99658.06;10398150;28;20140;-59
2023/05/14 13:51:30;;;;;;;4.55;1.60;;;;;;;22.43;31.33;99670.84;10391502;28;20045;-59
2023/05/14 13:56:32;;;;;;;2.70;1.83;;;;;;;22.62;32.09;99646.41;10407441;28;20052;-59
2023/05/14 14:01:33;;;;;;;4.45;1.60;;;;;;;22.58;32.68;99647.75;10424810;28;20055;-59
2023/05/14 14:06:35;;;;;;;3.78;1.67;;;;;;;22.32;33.60;99653.38;10421907;28;20045;-59
2023/05/14 14:11:37;;;;;;;2.85;1.50;;;;;;;22.14;32.73;99643.97;10401071;28;20413;-60
2023/05/14 14:16:39;;;;;;;2.50;1.70;;;;;;;21.92;32.72;99645.50;10434345;28;20133;-60
2023/05/14 14:21:41;;;;;;;4.75;1.70;;;;;;;22.04;33.31;99636.19;10399202;28;20033;-59
2023/05/14 14:26:43;;;;;;;3.28;1.65;;;;;;;22.39;32.52;99633.03;10401249;28;20045;-60
2023/05/14 14:31:45;;;;;;;3.60;1.60;;;;;;;22.09;32.28;99628.50;10400189;28;20041;-59
2023/05/14 14:36:47;;;;;;;3.20;1.70;;;;;;;22.56;32.95;99612.44;10402429;28;20099;-60
2023/05/14 14:41:49;;;;;;;2.63;1.65;;;;;;;22.86;33.37;99611.59;10386637;28;20069;-59
2023/05/14 14:46:51;;;;;;;4.22;1.90;;;;;;;22.75;33.18;99635.19;10434787;28;20261;-59
2023/05/14 14:51:53;;;;;;;2.85;1.60;;;;;;;19.20;40.98;99658.56;10393250;28;20077;-59
2023/05/14 14:56:55;;;;;;;5.45;1.92;;;;;;;17.31;48.38;99662.75;10401193;28;20041;-59
2023/05/14 15:01:57;;;;;;;4.82;2.03;;;;;;;16.35;50.47;99669.69;10413615;28;20045;-59
2023/05/14 15:07:00;;;;;;;3.83;1.58;;;;;;;15.95;50.69;99671.50;10400930;28;20501;-59
2023/05/14 15:12:02;;;;;;;2.30;1.55;;;;;;;16.11;51.51;99677.94;10395707;28;20141;-59
2023/05/14 15:17:04;;;;;;;4.70;1.50;;;;;;;16.16;50.09;99683.66;10406189;28;20041;-59
2023/05/14 15:22:06;;;;;;;2.58;1.65;;;;;;;15.97;52.15;99691.50;10397524;28;20121;-59
2023/05/14 15:27:08;;;;;;;2.85;1.60;;;;;;;15.65;52.01;99690.78;10393017;28;20505;-59
2023/05/14 15:32:10;;;;;;;3.67;1.80;;;;;;;16.20;53.03;99684.25;10397443;28;20145;-59
2023/05/14 15:37:12;;;;;;;8.38;2.22;;;;;;;16.81;55.19;99682.34;10397077;28;20047;-59
2023/05/14 15:42:13;;;;;;;6.20;2.33;;;;;;;16.99;55.21;99678.91;10428828;28;20422;-59
2023/05/14 15:47:15;;;;;;;4.53;1.92;;;;;;;17.13;54.53;99677.63;10399198;28;20040;-59
2023/05/14 15:52:17;;;;;;;4.47;1.90;;;;;;;17.17;53.38;99663.19;10394430;28;20057;-59
2023/05/14 15:57:19;;;;;;;3.75;1.80;;;;;;;17.17;55.36;99668.47;10397441;28;20084;-59
2023/05/14 16:02:21;;;;;;;4.80;1.92;;;;;;;17.12;54.95;99668.03;10396298;28;20048;-59
2023/05/14 16:07:22;;;;;;;7.38;2.70;;;;;;;17.15;55.05;99667.75;10391073;28;20040;-59
2023/05/14 16:12:25;;;;;;;4.85;2.00;;;;;;;17.51;53.95;99664.41;10394317;28;20076;-59
2023/05/14 16:17:27;;;;;;;4.57;1.90;;;;;;;17.61;52.90;99657.28;10380690;28;20128;-59
2023/05/14 16:22:31;;;;;;;6.38;2.20;;;;;;;17.81;53.73;99652.81;10395362;28;20413;-59
2023/05/14 16:27:33;;;;;;;6.40;2.70;;;;;;;17.82;54.10;99647.38;10396841;28;20077;-59
2023/05/14 16:32:35;;;;;;;5.13;2.75;;;;;;;17.51;53.33;99656.50;10394168;28;20516;-59
2023/05/14 16:37:37;;;;;;;6.22;2.90;;;;;;;17.76;53.61;99653.22;10396910;28;20692;-59
2023/05/14 16:42:39;;;;;;;3.58;2.33;;;;;;;17.94;52.93;99652.47;10392262;28;20045;-58
2023/05/14 16:47:41;;;;;;;15.88;10.48;;;;;;;18.10;53.74;99658.81;10408485;28;20124;-59
2023/05/14 16:52:43;;;;;;;17.55;11.20;;;;;;;18.06;53.50;99661.88;10394116;28;20049;-59
2023/05/14 16:57:45;;;;;;;10.85;6.32;;;;;;;17.93;53.93;99659.59;10375080;28;20044;-59
2023/05/14 17:02:48;;;;;;;6.50;4.20;;;;;;;17.92;54.39;99671.13;10395980;28;20120;-59
2023/05/14 17:07:50;;;;;;;7.72;5.72;;;;;;;17.90;54.63;99673.09;10395558;28;20029;-59
2023/05/14 17:12:52;;;;;;;12.30;8.65;;;;;;;17.87;55.03;99685.78;10391671;28;20049;-59
2023/05/14 17:17:54;;;;;;;5.75;3.70;;;;;;;17.74;55.25;99675.50;10422551;28;20487;-59
2023/05/14 17:22:57;;;;;;;4.93;3.03;;;;;;;17.69;54.93;99680.38;10408264;28;20037;-59
2023/05/14 17:27:59;;;;;;;4.60;2.72;;;;;;;17.76;54.57;99679.69;10391683;28;20585;-59
2023/05/14 17:33:01;;;;;;;6.47;3.22;;;;;;;17.48;55.78;99683.22;10401102;28;20053;-59
2023/05/14 17:38:03;;;;;;;4.43;2.70;;;;;;;17.47;56.25;99686.81;10397906;28;20468;-59
2023/05/14 17:43:07;;;;;;;4.38;2.35;;;;;;;17.44;56.11;99695.06;10398595;28;20041;-59
2023/05/14 17:48:09;;;;;;;5.63;2.90;;;;;;;17.45;56.16;99677.38;10401327;28;20140;-59
2023/05/14 17:53:11;;;;;;;8.07;3.60;;;;;;;17.41;56.34;99682.09;10404685;28;20048;-59
2023/05/14 17:58:14;;;;;;;6.68;3.65;;;;;;;17.24;57.56;99693.34;10404855;28;20693;-59
2023/05/14 18:03:16;;;;;;;4.60;3.20;;;;;;;17.20;58.07;99691.94;10399991;28;20054;-59
2023/05/14 18:08:18;;;;;;;5.47;3.10;;;;;;;17.12;58.38;99691.81;10388772;28;20168;-59
2023/05/14 18:13:20;;;;;;;6.45;3.00;;;;;;;16.98;58.58;99687.78;10387840;28;20042;-59
2023/05/14 18:18:22;;;;;;;5.45;3.05;;;;;;;16.83;58.60;99696.25;10397729;28;20132;-59
2023/05/14 18:23:24;;;;;;;4.43;2.35;;;;;;;16.81;59.02;99701.66;10401002;28;20445;-59
2023/05/14 18:28:26;;;;;;;3.97;2.78;;;;;;;16.77;58.08;99710.00;10386574;28;20575;-59
2023/05/14 18:33:30;;;;;;;5.28;2.60;;;;;;;16.54;58.55;99719.09;10401047;28;20041;-58
2023/05/14 18:38:31;;;;;;;4.47;2.58;;;;;;;16.48;59.27;99717.00;10400452;28;20042;-59
2023/05/14 18:43:33;;;;;;;4.32;2.50;;;;;;;16.35;58.83;99722.47;10399614;28;20136;-59
2023/05/14 18:48:36;;;;;;;4.53;2.50;;;;;;;16.08;59.54;99732.78;10392030;28;20125;-59
2023/05/14 18:53:38;;;;;;;3.97;2.30;;;;;;;16.11;58.51;99727.25;10395247;28;20124;-59
2023/05/14 18:58:40;;;;;;;8.52;3.13;;;;;;;16.09;60.32;99731.81;10389456;28;20049;-59
2023/05/14 19:03:42;;;;;;;8.13;2.90;;;;;;;15.82;60.26;99731.50;10399501;28;20039;-60
2023/05/14 19:08:45;;;;;;;2.97;1.92;;;;;;;15.71;56.51;99728.94;10395273;28;20215;-60
2023/05/14 19:13:48;;;;;;;3.72;2.20;;;;;;;15.82;56.93;99720.97;10396840;28;20057;-58
2023/05/14 19:18:50;;;;;;;4.30;2.10;;;;;;;15.72;54.28;99736.72;10394669;28;20045;-58
2023/05/14 19:23:52;;;;;;;5.20;2.03;;;;;;;15.42;54.08;99731.34;10399554;28;20038;-58
2023/05/14 19:28:57;;;;;;;4.53;2.00;;;;;;;15.49;54.79;99734.31;10397088;28;20100;-58
2023/05/14 19:33:59;;;;;;;3.30;2.00;;;;;;;15.57;55.16;99739.81;10400616;28;20077;-58
2023/05/14 19:39:00;;;;;;;3.60;2.05;;;;;;;15.61;55.77;99731.53;10396542;28;20709;-58
2023/05/14 19:44:02;;;;;;;3.47;2.40;;;;;;;15.59;57.79;99736.06;10399952;28;20156;-58
2023/05/14 19:49:04;;;;;;;7.30;2.55;;;;;;;15.59;58.88;99725.53;10398086;28;20137;-59
2023/05/14 19:54:06;;;;;;;5.03;2.60;;;;;;;15.54;58.80;99727.72;10403528;28;20076;-58
2023/05/14 19:59:08;;;;;;;3.53;2.40;;;;;;;15.37;58.84;99738.78;10409147;28;20045;-58
2023/05/14 20:04:12;;;;;;;3.47;2.20;;;;;;;15.14;59.32;99731.94;10402055;28;20477;-58
2023/05/14 20:09:14;;;;;;;4.25;2.30;;;;;;;15.24;59.03;99732.88;10418553;28;20053;-59
2023/05/14 20:14:16;;;;;;;4.00;2.55;;;;;;;15.22;58.93;99735.63;10395703;28;20127;-58
2023/05/14 20:19:19;;;;;;;4.45;2.53;;;;;;;15.25;59.59;99737.16;10402864;28;20049;-58
2023/05/14 20:24:22;;;;;;;4.38;3.00;;;;;;;15.22;59.81;99724.25;10415301;28;20390;-58
2023/05/14 20:29:23;;;;;;;4.68;2.65;;;;;;;15.11;60.11;99726.91;10399733;28;20055;-58
2023/05/14 20:34:25;;;;;;;6.43;2.70;;;;;;;15.01;60.42;99713.66;10400476;28;20057;-58
2023/05/14 20:39:27;;;;;;;6.03;2.65;;;;;;;15.05;60.41;99715.09;10398011;28;20397;-58
2023/05/14 20:44:29;;;;;;;5.30;2.45;;;;;;;14.97;60.72;99704.34;10400564;28;20065;-58
2023/05/14 20:49:30;;;;;;;5.85;2.72;;;;;;;15.02;60.82;99707.41;10400226;28;20573;-58
2023/05/14 20:54:32;;;;;;;5.22;2.85;;;;;;;14.96;60.72;99705.28;10404462;28;20045;-58
2023/05/14 20:59:34;;;;;;;6.43;2.80;;;;;;;14.88;61.00;99693.72;10394043;28;20405;-58
2023/05/14 21:04:36;;;;;;;5.55;3.10;;;;;;;14.74;61.53;99688.72;10423876;28;20048;-58
2023/05/14 21:09:39;;;;;;;5.13;3.20;;;;;;;14.64;61.80;99699.16;10439005;28;20035;-59
2023/05/14 21:14:41;;;;;;;5.75;2.60;;;;;;;14.65;62.04;99700.00;10440258;28;20053;-59
2023/05/14 21:19:43;;;;;;;3.95;2.80;;;;;;;14.61;61.75;99696.78;10439147;28;20133;-59
2023/05/14 21:24:45;;;;;;;4.10;2.92;;;;;;;14.54;61.97;99693.81;10444051;28;20051;-59
2023/05/14 21:29:46;;;;;;;5.40;3.08;;;;;;;14.58;62.33;99689.97;10427113;28;20128;-58
2023/05/14 21:34:48;;;;;;;6.10;3.20;;;;;;;14.42;62.51;99702.63;10420602;28;20135;-57
2023/05/14 21:39:50;;;;;;;4.65;3.25;;;;;;;14.43;62.84;99693.78;10441224;28;20092;-58
2023/05/14 21:44:52;;;;;;;6.72;3.15;;;;;;;14.45;62.82;99691.84;10416150;28;20049;-58
2023/05/14 21:49:54;;;;;;;4.32;3.00;;;;;;;14.39;62.70;99689.72;10435822;28;20136;-58
2023/05/14 21:54:56;;;;;;;8.80;2.90;;;;;;;14.29;62.81;99690.56;10437211;28;20057;-58
2023/05/14 21:59:57;;;;;;;6.18;2.80;;;;;;;14.10;63.01;99685.94;10439255;28;20041;-58
2023/05/14 22:04:59;;;;;;;5.35;2.85;;;;;;;14.09;62.89;99684.22;10419186;28;20051;-58
2023/05/14 22:10:01;;;;;;;5.60;2.85;;;;;;;14.12;62.81;99683.16;10437317;28;20541;-57
2023/05/14 22:15:04;;;;;;;7.57;3.17;;;;;;;14.18;63.10;99686.16;10439065;28;20044;-58
2023/05/14 22:20:08;;;;;;;5.28;3.22;;;;;;;14.12;62.61;99688.44;10450382;28;20167;-58
2023/05/14 22:25:10;;;;;;;6.57;3.15;;;;;;;14.00;63.05;99679.72;10434621;28;20129;-58
2023/05/14 22:30:12;;;;;;;6.38;3.50;;;;;;;13.92;63.37;99676.84;10426759;28;20064;-57
2023/05/14 22:35:14;;;;;;;4.90;3.05;;;;;;;13.86;63.24;99679.91;10437899;28;20605;-58
2023/05/14 22:40:16;;;;;;;4.93;3.42;;;;;;;13.74;63.47;99675.59;10430607;28;20893;-58
2023/05/14 22:45:17;;;;;;;5.55;3.40;;;;;;;13.56;63.38;99675.22;10427722;28;20067;-58
2023/05/14 22:50:19;;;;;;;8.55;3.50;;;;;;;13.38;63.85;99673.97;10407159;28;20043;-58
2023/05/14 22:55:21;;;;;;;6.97;3.97;;;;;;;13.17;64.25;99677.38;10426604;28;20045;-58
2023/05/14 23:00:24;;;;;;;6.28;3.42;;;;;;;13.04;64.38;99672.19;10424213;28;20410;-58
2023/05/14 23:05:25;;;;;;;9.07;3.85;;;;;;;12.93;64.63;99659.84;10406193;28;20152;-58
2023/05/14 23:10:28;;;;;;;9.10;3.42;;;;;;;12.80;64.60;99666.09;10401663;28;20033;-58